This demonstration page uses our WeatherBlox Daily Observations layout. Learn more.

38.88101, -77.10428

Hourly Observations for March 6, 2017

Temp ( °F °C ) Dew Point ( °F °C ) Humidity (%) Winds ( mph kmh ) Pressure ( in mb ) Visibility ( mi km ) Precip ( " mm )
12:52 am 00:52 Mostly Cloudy 34 1.1 11 -11.7 38 38 SSE 6 9 30.53 1034 10 16.09344 0 0
1:52 am 01:52 Mostly Cloudy 33 0.6 16 -8.9 49 49 SSE 5 7 30.5 1033 10 16.09344 0 0
2:52 am 02:52 Mostly Cloudy 33 0.6 20 -6.7 58 58 SSE 5 7 30.5 1033 10 16.09344 0 0
3:52 am 03:52 Cloudy 34 1.1 22 -5.6 61 61 SE 6 9 30.5 1033 10 16.09344 0 0
4:52 am 04:52 Cloudy 34 1.1 24 -4.4 67 67 S 5 7 30.5 1033 10 16.09344 0 0
5:52 am 05:52 Mostly Cloudy 34 1.1 23 -5 64 64 SE 6 9 30.5 1033 10 16.09344 0 0
6:52 am 06:52 Mostly Cloudy 35 1.7 23 -5 61 61 SSE 10 17 30.5 1033 10 16.09344 0 0
7:52 am 07:52 Mostly Cloudy 36 2.2 23 -5 59 59 SSE 6 9 30.5 1033 10 16.09344 0 0
8:52 am 08:52 Partly Cloudy 38 3.3 25 -3.9 60 60 S 8 13 30.5 1033 10 16.09344 0 0
9:52 am 09:52 Mostly Cloudy 42 5.6 26 -3.3 53 53 S 9 15 30.5 1033 10 16.09344 0 0
10:52 am 10:52 Mostly Cloudy 45 7.2 27 -2.8 49 49 S 8 13 30.48 1032 10 16.09344 0 0
11:52 am 11:52 Partly Cloudy 49 9.4 27 -2.8 43 43 SSW 8 13 30.45 1031 10 16.09344 0 0
12:52 pm 12:52 Partly Cloudy 52 11.1 27 -2.8 38 38 SSW 7 11 30.45 1031 10 16.09344 0 0
1:52 pm 13:52 Mostly Cloudy 52 11.1 30 -1.1 43 43 S 8 13 30.39 1029 10 16.09344 0 0
2:52 pm 14:52 Mostly Cloudy 53 11.7 29 -1.7 40 40 S 9 15 30.39 1029 10 16.09344 0 0
3:52 pm 15:52 Cloudy 53 11.7 30 -1.1 41 41 S 6 9 30.39 1029 10 16.09344 0 0
4:52 pm 16:52 Cloudy 53 11.7 31 -0.6 43 43 S 5 7 30.39 1029 10 16.09344 0.001 0.001
5:52 pm 17:52 Cloudy 54 12.2 30 -1.1 40 40 Calm 30.39 1029 10 16.09344 0 0
6:52 pm 18:52 Cloudy 50 10 38 3.3 63 63 E 7 11 30.39 1029 10 16.09344 0 0
7:52 pm 19:52 Cloudy 50 10 38 3.3 63 63 SE 7 11 30.39 1029 10 16.09344 0 0
8:52 pm 20:52 Cloudy 49 9.4 38 3.3 66 66 SE 7 11 30.39 1029 10 16.09344 0 0
9:52 pm 21:52 Cloudy 48 8.9 38 3.3 68 68 SE 6 9 30.36 1028 10 16.09344 0 0
10:52 pm 22:52 Cloudy 48 8.9 38 3.3 68 68 SSE 5 7 30.36 1028 10 16.09344 0 0
11:52 pm 23:52 Cloudy 48 8.9 39 3.9 71 71 SSE 6 9 30.33 1027 10 16.09344 0 0

Powered by AerisWeather